Time;durP1;ratioP1;P1;durP2;ratioP2;P2;SDS_P1;SDS_P2;PMS_P1;PMS_P2;Temp;Humidity;BMP_temperature;BMP_pressure;BME280_temperature;BME280_humidity;BME280_pressure;Samples;Min_cycle;Max_cycle;Signal;HPM_P1;HPM_P2
2021/10/21 00:01:05;;;;;;;232.70;216.80;;;;;;;;;;5045014;28;20456;-68
2021/10/21 00:03:32;;;;;;;236.77;220.27;;;;;;;;;;5052779;28;20452;-69
2021/10/21 00:05:59;;;;;;;237.40;221.43;;;;;;;;;;5033535;28;20449;-68
2021/10/21 00:08:26;;;;;;;227.13;211.30;;;;;;;;;;5032711;28;20469;-70
2021/10/21 00:10:53;;;;;;;225.63;210.50;;;;;;;;;;5049193;28;20456;-69
2021/10/21 00:13:22;;;;;;;216.50;201.60;;;;;;;;;;5053193;28;20475;-68
2021/10/21 00:15:49;;;;;;;219.57;204.83;;;;;;;;;;5037258;28;20543;-69
2021/10/21 00:18:16;;;;;;;211.90;197.40;;;;;;;;;;5032526;28;20468;-69
2021/10/21 00:20:43;;;;;;;206.80;192.90;;;;;;;;;;5033649;28;20455;-68
2021/10/21 00:23:10;;;;;;;208.50;194.73;;;;;;;;;;5032630;28;20475;-69
2021/10/21 00:25:38;;;;;;;209.63;195.63;;;;;;;;;;5032898;28;20457;-69
2021/10/21 00:28:05;;;;;;;211.60;197.73;;;;;;;;;;5032946;28;20448;-69
2021/10/21 00:30:33;;;;;;;200.70;187.07;;;;;;;;;;5041249;28;20467;-68
2021/10/21 00:33:00;;;;;;;197.23;183.77;;;;;;;;;;5041803;28;20477;-69
2021/10/21 00:35:28;;;;;;;202.10;188.40;;;;;;;;;;5040789;28;20452;-69
2021/10/21 00:37:55;;;;;;;206.80;193.20;;;;;;;;;;5052181;28;20448;-70
2021/10/21 00:40:22;;;;;;;207.73;193.90;;;;;;;;;;5051440;28;20444;-68
2021/10/21 00:42:49;;;;;;;208.87;195.27;;;;;;;;;;5052407;28;20444;-68
2021/10/21 00:45:17;;;;;;;217.33;203.03;;;;;;;;;;5032709;28;20453;-68
2021/10/21 00:47:45;;;;;;;223.80;209.47;;;;;;;;;;5032201;28;20456;-69
2021/10/21 00:50:12;;;;;;;226.07;211.83;;;;;;;;;;5037023;28;20486;-68
2021/10/21 00:52:40;;;;;;;222.63;208.33;;;;;;;;;;5051660;28;21025;-69
2021/10/21 00:55:07;;;;;;;227.10;212.80;;;;;;;;;;5036954;28;20764;-69
2021/10/21 00:57:35;;;;;;;226.10;211.70;;;;;;;;;;5051991;28;20455;-68
2021/10/21 01:00:02;;;;;;;222.37;208.27;;;;;;;;;;5050290;28;20476;-68
2021/10/21 01:02:29;;;;;;;223.60;209.40;;;;;;;;;;5052053;28;20448;-69
2021/10/21 01:04:57;;;;;;;218.60;204.33;;;;;;;;;;5034728;28;20457;-68
2021/10/21 01:07:24;;;;;;;211.80;198.07;;;;;;;;;;5031948;28;20456;-68
2021/10/21 01:09:51;;;;;;;209.13;195.43;;;;;;;;;;5033486;28;20475;-70
2021/10/21 01:12:18;;;;;;;199.40;186.20;;;;;;;;;;5031952;28;20849;-69
2021/10/21 01:14:46;;;;;;;195.27;182.27;;;;;;;;;;5036551;28;20443;-69
2021/10/21 01:17:14;;;;;;;188.47;175.93;;;;;;;;;;5051378;28;20462;-69
2021/10/21 01:19:42;;;;;;;183.97;171.67;;;;;;;;;;5042967;28;20466;-68
2021/10/21 01:22:10;;;;;;;187.17;175.10;;;;;;;;;;5012295;28;20807;-69
2021/10/21 01:24:37;;;;;;;179.13;167.20;;;;;;;;;;5015962;28;21034;-69
2021/10/21 01:27:05;;;;;;;186.23;174.17;;;;;;;;;;5031595;28;20453;-69
2021/10/21 01:29:32;;;;;;;175.27;163.77;;;;;;;;;;5033012;28;20487;-69
2021/10/21 01:31:59;;;;;;;179.83;168.07;;;;;;;;;;5051213;28;20476;-69
2021/10/21 01:34:26;;;;;;;175.13;163.33;;;;;;;;;;5049756;28;20451;-70
2021/10/21 01:36:54;;;;;;;173.27;161.73;;;;;;;;;;5036922;28;20453;-68
2021/10/21 01:39:23;;;;;;;174.47;163.03;;;;;;;;;;5031490;28;20472;-69
2021/10/21 01:41:50;;;;;;;175.60;164.10;;;;;;;;;;5011713;28;20450;-68
2021/10/21 01:44:18;;;;;;;176.00;164.80;;;;;;;;;;5011324;28;20817;-69
2021/10/21 01:46:45;;;;;;;184.13;172.60;;;;;;;;;;5036512;28;20449;-69
2021/10/21 01:49:12;;;;;;;179.00;167.70;;;;;;;;;;5031100;28;20480;-69
2021/10/21 01:51:39;;;;;;;173.00;162.10;;;;;;;;;;5032229;28;20456;-68
2021/10/21 01:54:06;;;;;;;169.80;159.03;;;;;;;;;;5030927;28;20453;-69
2021/10/21 01:56:34;;;;;;;166.90;156.10;;;;;;;;;;5047178;28;20458;-69
2021/10/21 01:59:02;;;;;;;168.00;157.13;;;;;;;;;;5050922;28;20464;-69
2021/10/21 02:01:29;;;;;;;163.17;152.80;;;;;;;;;;5043856;28;20450;-69
2021/10/21 02:03:56;;;;;;;162.30;151.87;;;;;;;;;;5031429;28;20441;-69
2021/10/21 02:06:24;;;;;;;159.77;149.50;;;;;;;;;;5031018;28;20479;-69
2021/10/21 02:08:51;;;;;;;162.37;151.77;;;;;;;;;;5031227;28;20495;-70
2021/10/21 02:11:18;;;;;;;162.07;151.60;;;;;;;;;;5031349;28;20456;-69
2021/10/21 02:13:47;;;;;;;157.20;147.07;;;;;;;;;;5030693;28;21022;-69
2021/10/21 02:16:14;;;;;;;152.63;142.83;;;;;;;;;;5048212;28;20483;-70
2021/10/21 02:18:41;;;;;;;149.87;140.07;;;;;;;;;;5036568;28;20495;-69
2021/10/21 02:21:08;;;;;;;142.93;133.70;;;;;;;;;;5047406;28;20459;-69
2021/10/21 02:23:36;;;;;;;132.20;123.60;;;;;;;;;;5050901;28;20444;-69
2021/10/21 02:26:03;;;;;;;125.13;116.93;;;;;;;;;;5035046;28;20833;-68
2021/10/21 02:28:30;;;;;;;126.33;117.83;;;;;;;;;;5033059;28;20472;-68
2021/10/21 02:30:59;;;;;;;120.23;112.17;;;;;;;;;;5047652;28;20451;-70
2021/10/21 02:33:26;;;;;;;119.40;111.10;;;;;;;;;;5054342;28;20483;-68
2021/10/21 02:35:53;;;;;;;115.67;108.10;;;;;;;;;;5044552;28;20822;-68
2021/10/21 02:38:20;;;;;;;115.23;107.43;;;;;;;;;;5034285;28;20542;-68
2021/10/21 02:40:47;;;;;;;116.97;109.07;;;;;;;;;;5033919;28;21022;-68
2021/10/21 02:43:15;;;;;;;110.63;103.20;;;;;;;;;;5035087;28;20453;-68
2021/10/21 02:45:42;;;;;;;110.73;103.43;;;;;;;;;;5033895;28;20453;-69
2021/10/21 02:48:10;;;;;;;112.80;105.10;;;;;;;;;;5033943;28;20819;-68
2021/10/21 02:50:37;;;;;;;117.57;109.50;;;;;;;;;;5033773;28;20543;-68
2021/10/21 02:53:05;;;;;;;107.17;99.50;;;;;;;;;;5041084;28;20479;-67
2021/10/21 02:55:32;;;;;;;109.07;101.53;;;;;;;;;;5053975;28;20451;-68
2021/10/21 02:57:59;;;;;;;113.00;105.60;;;;;;;;;;5051787;28;20448;-68
2021/10/21 03:00:26;;;;;;;112.93;105.43;;;;;;;;;;5053910;28;20986;-68
2021/10/21 03:02:53;;;;;;;107.63;100.30;;;;;;;;;;5048085;28;20447;-67
2021/10/21 03:05:21;;;;;;;106.53;99.20;;;;;;;;;;5045182;28;20452;-68
2021/10/21 03:07:48;;;;;;;108.70;101.50;;;;;;;;;;5050679;28;20549;-69
2021/10/21 03:10:15;;;;;;;106.20;98.87;;;;;;;;;;5036249;28;20483;-68
2021/10/21 03:12:43;;;;;;;106.27;99.10;;;;;;;;;;5035564;28;21013;-68
2021/10/21 03:15:11;;;;;;;102.63;95.63;;;;;;;;;;5053481;28;20444;-68
2021/10/21 03:17:41;;;;;;;104.70;97.37;;;;;;;;;;5049364;28;20527;-67
2021/10/21 03:20:09;;;;;;;104.57;97.33;;;;;;;;;;5033508;28;21139;-66
2021/10/21 03:22:37;;;;;;;105.53;98.33;;;;;;;;;;5034174;28;20441;-66
2021/10/21 03:25:05;;;;;;;102.17;94.87;;;;;;;;;;5052815;28;20989;-67
2021/10/21 03:27:32;;;;;;;106.80;99.07;;;;;;;;;;5050006;28;20477;-66
2021/10/21 03:29:59;;;;;;;105.30;97.80;;;;;;;;;;5052435;28;20480;-66
2021/10/21 03:32:27;;;;;;;105.73;98.37;;;;;;;;;;5053267;28;20448;-66
2021/10/21 03:34:54;;;;;;;108.33;100.67;;;;;;;;;;5034184;28;20452;-67
2021/10/21 03:37:21;;;;;;;112.30;104.53;;;;;;;;;;5033370;28;20448;-67
2021/10/21 03:39:50;;;;;;;108.13;100.70;;;;;;;;;;5049594;28;20994;-66
2021/10/21 03:42:17;;;;;;;106.00;98.50;;;;;;;;;;5053493;28;20452;-68
2021/10/21 03:44:44;;;;;;;110.00;102.30;;;;;;;;;;5036743;28;20818;-66
2021/10/21 03:47:11;;;;;;;115.33;107.53;;;;;;;;;;5033042;28;20455;-68
2021/10/21 03:49:39;;;;;;;121.80;113.60;;;;;;;;;;5028863;28;20488;-67
2021/10/21 03:52:06;;;;;;;118.57;110.37;;;;;;;;;;5032847;28;20974;-66
2021/10/21 03:54:33;;;;;;;118.27;110.33;;;;;;;;;;5032845;28;21021;-66
2021/10/21 03:57:02;;;;;;;113.93;105.60;;;;;;;;;;5032912;28;20449;-67
2021/10/21 03:59:29;;;;;;;121.90;113.80;;;;;;;;;;5033996;28;20535;-66
2021/10/21 04:01:57;;;;;;;118.57;110.57;;;;;;;;;;5037497;28;20445;-67
2021/10/21 04:04:24;;;;;;;119.13;110.93;;;;;;;;;;5042567;28;20562;-67
2021/10/21 04:06:51;;;;;;;118.90;110.47;;;;;;;;;;5032559;28;20929;-67
2021/10/21 04:09:18;;;;;;;114.10;106.20;;;;;;;;;;5033437;28;20468;-70
2021/10/21 04:11:45;;;;;;;114.80;106.70;;;;;;;;;;5033358;28;20445;-71
2021/10/21 04:14:14;;;;;;;115.00;107.17;;;;;;;;;;5041979;28;20476;-72
2021/10/21 04:16:41;;;;;;;114.57;106.40;;;;;;;;;;5052443;28;20448;-70
2021/10/21 04:19:08;;;;;;;115.90;107.50;;;;;;;;;;5051214;28;20468;-69
2021/10/21 04:21:35;;;;;;;115.33;107.40;;;;;;;;;;5033070;28;20479;-69
2021/10/21 04:24:02;;;;;;;106.40;98.80;;;;;;;;;;5037890;28;20942;-74
2021/10/21 04:26:30;;;;;;;110.27;102.57;;;;;;;;;;5052488;28;20458;-75
2021/10/21 04:28:57;;;;;;;140.27;130.40;;;;;;;;;;5052192;28;20471;-72
2021/10/21 04:31:25;;;;;;;160.83;149.80;;;;;;;;;;5035586;28;20456;-72
2021/10/21 04:33:52;;;;;;;178.37;166.50;;;;;;;;;;5036918;28;20476;-72
2021/10/21 04:36:19;;;;;;;177.50;164.93;;;;;;;;;;5052965;28;20470;-76
2021/10/21 04:38:46;;;;;;;193.80;180.30;;;;;;;;;;5050609;28;20491;-69
2021/10/21 04:41:14;;;;;;;173.80;160.60;;;;;;;;;;5033655;28;20453;-67
2021/10/21 04:43:41;;;;;;;187.93;174.00;;;;;;;;;;5033262;28;20444;-67
2021/10/21 04:46:08;;;;;;;209.50;193.93;;;;;;;;;;5052374;28;20451;-67
2021/10/21 04:48:36;;;;;;;218.13;202.33;;;;;;;;;;5052078;28;20844;-67
2021/10/21 04:51:03;;;;;;;255.37;237.40;;;;;;;;;;5035716;28;20457;-67
2021/10/21 04:53:31;;;;;;;299.67;281.20;;;;;;;;;;5032505;28;20473;-67
2021/10/21 04:55:58;;;;;;;255.63;237.80;;;;;;;;;;5049994;28;20539;-67
2021/10/21 04:58:25;;;;;;;284.13;265.03;;;;;;;;;;5051762;28;20982;-67
2021/10/21 05:00:53;;;;;;;304.00;284.30;;;;;;;;;;5034092;28;20449;-67
2021/10/21 05:03:20;;;;;;;315.50;295.90;;;;;;;;;;5031991;28;20441;-68
2021/10/21 05:05:48;;;;;;;277.20;258.20;;;;;;;;;;5047137;28;20452;-67
2021/10/21 05:08:15;;;;;;;281.53;262.57;;;;;;;;;;5036122;28;20464;-69
2021/10/21 05:10:42;;;;;;;399.60;368.60;;;;;;;;;;5044742;28;20458;-67
2021/10/21 05:13:10;;;;;;;450.07;414.93;;;;;;;;;;5052143;28;20487;-68
2021/10/21 05:15:37;;;;;;;320.63;298.87;;;;;;;;;;5049742;28;20597;-68
2021/10/21 05:18:04;;;;;;;291.70;269.57;;;;;;;;;;5040203;28;20452;-66
2021/10/21 05:20:33;;;;;;;332.27;309.37;;;;;;;;;;5032188;28;20441;-68
2021/10/21 05:23:01;;;;;;;293.87;271.97;;;;;;;;;;5041916;28;20460;-65
2021/10/21 05:25:28;;;;;;;287.13;264.93;;;;;;;;;;5031750;28;20820;-64
2021/10/21 05:27:55;;;;;;;275.10;254.67;;;;;;;;;;5034456;28;20464;-66
2021/10/21 05:30:23;;;;;;;285.03;265.00;;;;;;;;;;5035081;28;20451;-67
2021/10/21 05:32:50;;;;;;;271.80;251.77;;;;;;;;;;5032419;28;20456;-67
2021/10/21 05:35:17;;;;;;;263.37;243.53;;;;;;;;;;5031692;28;20444;-66
2021/10/21 05:37:44;;;;;;;256.00;236.67;;;;;;;;;;5036007;28;20458;-69
2021/10/21 05:40:13;;;;;;;275.10;254.37;;;;;;;;;;5042689;28;20467;-67
2021/10/21 05:42:41;;;;;;;301.43;280.20;;;;;;;;;;5036365;28;20457;-67
2021/10/21 05:45:08;;;;;;;285.10;264.07;;;;;;;;;;5031897;28;20924;-66
2021/10/21 05:47:36;;;;;;;306.90;284.83;;;;;;;;;;5036226;28;20448;-66
2021/10/21 05:50:03;;;;;;;334.80;311.20;;;;;;;;;;5052200;28;20559;-66
2021/10/21 05:52:30;;;;;;;335.40;312.60;;;;;;;;;;5034556;28;20468;-68
2021/10/21 05:54:57;;;;;;;299.53;276.63;;;;;;;;;;5032255;28;20476;-65
2021/10/21 05:57:26;;;;;;;307.83;285.03;;;;;;;;;;5032641;28;20460;-69
2021/10/21 05:59:53;;;;;;;304.43;281.43;;;;;;;;;;5052101;28;20475;-66
2021/10/21 06:02:20;;;;;;;295.80;275.97;;;;;;;;;;5038179;28;20451;-66
2021/10/21 06:04:47;;;;;;;359.23;333.50;;;;;;;;;;5035215;28;20460;-66
2021/10/21 06:07:14;;;;;;;409.40;378.93;;;;;;;;;;5037162;28;21791;-66
2021/10/21 06:09:42;;;;;;;423.17;391.63;;;;;;;;;;5048094;28;20528;-66
2021/10/21 06:12:09;;;;;;;496.17;459.20;;;;;;;;;;5038938;28;20465;-68
2021/10/21 06:14:38;;;;;;;549.30;508.70;;;;;;;;;;5034242;28;20476;-67
2021/10/21 06:17:05;;;;;;;553.20;513.77;;;;;;;;;;5033581;28;20467;-73
2021/10/21 06:19:32;;;;;;;555.73;513.70;;;;;;;;;;5034913;28;20473;-68
2021/10/21 06:22:01;;;;;;;558.50;517.50;;;;;;;;;;5033137;28;20817;-71
2021/10/21 06:24:28;;;;;;;549.47;509.97;;;;;;;;;;5033879;28;20464;-68
2021/10/21 06:26:56;;;;;;;505.60;468.60;;;;;;;;;;5032323;28;20476;-68
2021/10/21 06:29:23;;;;;;;548.00;512.40;;;;;;;;;;5032800;28;20483;-68
2021/10/21 06:31:51;;;;;;;500.03;462.00;;;;;;;;;;5034878;28;20467;-69
2021/10/21 06:34:18;;;;;;;503.63;471.33;;;;;;;;;;5045867;28;20490;-68
2021/10/21 06:36:46;;;;;;;479.90;449.00;;;;;;;;;;5034106;28;20465;-69
2021/10/21 06:39:13;;;;;;;476.17;446.80;;;;;;;;;;5037760;28;21002;-67
2021/10/21 06:41:40;;;;;;;484.20;454.30;;;;;;;;;;5038972;28;20465;-69
2021/10/21 06:44:08;;;;;;;450.13;421.50;;;;;;;;;;5034611;28;20471;-68
2021/10/21 06:46:35;;;;;;;421.67;394.17;;;;;;;;;;5034255;28;20540;-68
2021/10/21 06:49:04;;;;;;;429.83;403.00;;;;;;;;;;5034639;28;20488;-68
2021/10/21 06:51:31;;;;;;;407.70;381.03;;;;;;;;;;5034435;28;20453;-67
2021/10/21 06:53:58;;;;;;;413.83;387.17;;;;;;;;;;5050286;28;20852;-74
2021/10/21 06:56:25;;;;;;;407.80;381.80;;;;;;;;;;5041600;28;20469;-70
2021/10/21 06:58:52;;;;;;;407.30;382.50;;;;;;;;;;5034433;28;20500;-70
2021/10/21 07:01:19;;;;;;;461.80;434.20;;;;;;;;;;5033373;28;20448;-68
2021/10/21 07:03:46;;;;;;;445.67;418.33;;;;;;;;;;5034238;28;20944;-70
2021/10/21 07:06:15;;;;;;;445.63;418.10;;;;;;;;;;5041764;28;20448;-68
2021/10/21 07:08:42;;;;;;;444.03;415.80;;;;;;;;;;5032134;28;20468;-71
2021/10/21 07:11:09;;;;;;;419.67;394.30;;;;;;;;;;5053331;28;20938;-68
2021/10/21 07:13:36;;;;;;;270.77;254.40;;;;;;;;;;5046676;28;20497;-70
2021/10/21 07:16:04;;;;;;;365.30;342.90;;;;;;;;;;5053946;28;20958;-68
2021/10/21 07:18:32;;;;;;;178.17;166.13;;;;;;;;;;5033734;28;20991;-74
2021/10/21 07:20:59;;;;;;;164.60;153.40;;;;;;;;;;5033718;28;20456;-79
2021/10/21 07:23:27;;;;;;;149.63;139.37;;;;;;;;;;5030902;28;20450;-69
2021/10/21 07:25:54;;;;;;;146.37;136.07;;;;;;;;;;4983656;28;21006;-68
2021/10/21 07:28:22;;;;;;;152.53;141.83;;;;;;;;;;4963182;28;20483;-83
2021/10/21 07:30:52;;;;;;;196.03;183.23;;;;;;;;;;4976888;28;20456;-77
2021/10/21 07:33:20;;;;;;;210.70;198.30;;;;;;;;;;4976560;28;20929;-77
2021/10/21 07:35:47;;;;;;;149.00;139.20;;;;;;;;;;4976686;28;20493;-81
2021/10/21 07:38:14;;;;;;;278.63;263.07;;;;;;;;;;4976735;28;20552;-78
2021/10/21 07:40:43;;;;;;;293.93;277.53;;;;;;;;;;4976493;28;20460;-71
2021/10/21 07:43:11;;;;;;;169.63;157.97;;;;;;;;;;4976795;28;20457;-79
2021/10/21 07:45:38;;;;;;;167.30;155.90;;;;;;;;;;4976763;28;20786;-82
2021/10/21 07:48:06;;;;;;;188.57;176.40;;;;;;;;;;4976158;28;20958;-76
2021/10/21 07:50:33;;;;;;;178.77;166.40;;;;;;;;;;4976913;28;20436;-80
2021/10/21 07:53:00;;;;;;;181.50;169.10;;;;;;;;;;4977046;28;20447;-83
2021/10/21 07:55:30;;;;;;;180.33;168.53;;;;;;;;;;4976694;28;20487;-78
2021/10/21 07:57:59;;;;;;;174.03;162.77;;;;;;;;;;4976660;28;20459;-80
2021/10/21 08:00:26;;;;;;;162.63;151.43;;;;;;;;;;4976876;28;20839;-76
2021/10/21 08:02:53;;;;;;;171.90;160.10;;;;;;;;;;4976738;28;20455;-79
2021/10/21 08:05:20;;;;;;;168.80;157.03;;;;;;;;;;4976607;28;20455;-81
2021/10/21 08:07:48;;;;;;;199.20;186.60;;;;;;;;;;4978989;28;21097;-81
2021/10/21 08:10:16;;;;;;;174.77;162.60;;;;;;;;;;4976536;28;20474;-84
2021/10/21 08:12:43;;;;;;;181.10;169.00;;;;;;;;;;4971428;28;21023;-74
2021/10/21 08:15:12;;;;;;;162.83;151.20;;;;;;;;;;4976430;28;20483;-79
2021/10/21 08:17:40;;;;;;;180.53;168.73;;;;;;;;;;4977078;28;20534;-84
2021/10/21 08:20:07;;;;;;;177.13;164.93;;;;;;;;;;4977160;28;20503;-80
2021/10/21 08:22:35;;;;;;;178.93;167.03;;;;;;;;;;4976951;28;20462;-86
2021/10/21 08:25:03;;;;;;;180.10;167.87;;;;;;;;;;4976140;28;20447;-81
2021/10/21 08:27:31;;;;;;;190.23;177.47;;;;;;;;;;4976940;28;20533;-74
2021/10/21 08:29:58;;;;;;;183.67;171.30;;;;;;;;;;4977208;28;20478;-76
2021/10/21 08:32:26;;;;;;;167.33;155.23;;;;;;;;;;4978559;28;20823;-75
2021/10/21 08:34:53;;;;;;;174.37;162.47;;;;;;;;;;4981573;28;20483;-73
2021/10/21 08:37:21;;;;;;;164.50;153.50;;;;;;;;;;4979801;28;21058;-74
2021/10/21 08:39:48;;;;;;;173.80;162.17;;;;;;;;;;4978430;28;20483;-72
2021/10/21 08:42:16;;;;;;;174.63;162.70;;;;;;;;;;4975384;28;20927;-74
2021/10/21 08:44:44;;;;;;;183.07;170.77;;;;;;;;;;4976170;28;20538;-79
2021/10/21 08:47:11;;;;;;;202.00;189.60;;;;;;;;;;4975798;28;20448;-74
2021/10/21 08:49:41;;;;;;;185.20;172.83;;;;;;;;;;4975646;28;20489;-77
2021/10/21 08:52:08;;;;;;;184.33;171.93;;;;;;;;;;4975739;28;20459;-72
2021/10/21 08:54:35;;;;;;;187.13;174.73;;;;;;;;;;4974837;28;20494;-74
2021/10/21 08:57:02;;;;;;;208.83;196.23;;;;;;;;;;4975483;28;20451;-74
2021/10/21 08:59:31;;;;;;;188.63;175.90;;;;;;;;;;4976296;28;21010;-67
2021/10/21 09:02:09;;;;;;;194.20;180.73;;;;;;;;;;4974972;28;20487;-78
2021/10/21 09:04:51;;;;;;;256.57;236.17;;;;;;;;;;4974962;28;20490;-74
2021/10/21 09:10:08;;;;;;;343.17;323.17;;;;;;;;;;4974892;28;20470;-75
2021/10/21 09:12:40;;;;;;;359.43;337.90;;;;;;;;;;4974370;28;20452;-73
2021/10/21 09:15:10;;;;;;;331.27;311.67;;;;;;;;;;4979254;28;20468;-79
2021/10/21 09:17:37;;;;;;;383.73;359.70;;;;;;;;;;4979959;28;20463;-80
2021/10/21 09:20:20;;;;;;;391.17;366.73;;;;;;;;;;4982380;28;20481;-80
2021/10/21 09:22:53;;;;;;;404.60;378.30;;;;;;;;;;4977676;28;20435;-71
2021/10/21 09:25:23;;;;;;;390.53;366.67;;;;;;;;;;4976253;28;20511;-73
2021/10/21 09:27:50;;;;;;;386.87;361.47;;;;;;;;;;4973809;28;20870;-71
2021/10/21 09:30:23;;;;;;;369.53;346.37;;;;;;;;;;4971855;28;21047;-70
2021/10/21 09:32:51;;;;;;;447.57;416.17;;;;;;;;;;4971092;28;20455;-70
2021/10/21 09:35:21;;;;;;;440.20;409.90;;;;;;;;;;4969587;28;20490;-73
2021/10/21 09:37:49;;;;;;;464.87;431.50;;;;;;;;;;4976539;28;20442;-70
2021/10/21 09:40:19;;;;;;;423.77;394.83;;;;;;;;;;4976911;28;20481;-70
2021/10/21 09:42:47;;;;;;;431.03;401.57;;;;;;;;;;4977124;28;20988;-70
2021/10/21 09:45:15;;;;;;;406.47;380.33;;;;;;;;;;4978692;28;20452;-73
2021/10/21 09:47:44;;;;;;;376.10;352.67;;;;;;;;;;4980506;28;20465;-72
2021/10/21 09:50:21;;;;;;;366.47;344.10;;;;;;;;;;4980318;28;20478;-76
2021/10/21 09:53:19;;;;;;;356.80;334.80;;;;;;;;;;4980533;28;20494;-72
2021/10/21 09:55:49;;;;;;;354.10;333.00;;;;;;;;;;4920382;29;20486;-78
2021/10/21 09:58:17;;;;;;;326.47;306.70;;;;;;;;;;4967772;28;20479;-79
2021/10/21 10:00:44;;;;;;;209.83;195.10;;;;;;;;;;4970776;28;20538;-77
2021/10/21 10:03:12;;;;;;;287.37;270.47;;;;;;;;;;4980439;28;20455;-77
2021/10/21 10:05:40;;;;;;;303.03;284.20;;;;;;;;;;4979640;28;20486;-76
2021/10/21 10:08:09;;;;;;;276.73;259.23;;;;;;;;;;4979878;28;20462;-77
2021/10/21 10:10:37;;;;;;;295.73;278.70;;;;;;;;;;4979014;28;20822;-74
2021/10/21 10:13:05;;;;;;;271.63;254.93;;;;;;;;;;4979636;28;20963;-72
2021/10/21 10:15:34;;;;;;;278.83;261.83;;;;;;;;;;4979359;28;20489;-81
2021/10/21 10:18:04;;;;;;;247.00;230.97;;;;;;;;;;4978292;28;20466;-74
2021/10/21 10:20:32;;;;;;;199.57;186.80;;;;;;;;;;4959347;28;20454;-76
2021/10/21 10:23:00;;;;;;;258.80;242.90;;;;;;;;;;4977210;28;20455;-74
2021/10/21 10:25:27;;;;;;;169.57;158.30;;;;;;;;;;4976956;28;20530;-79
2021/10/21 10:27:55;;;;;;;157.10;146.43;;;;;;;;;;4977716;28;20459;-76
2021/10/21 10:30:37;;;;;;;170.93;159.33;;;;;;;;;;4978158;28;20487;-78
2021/10/21 10:33:05;;;;;;;171.37;160.00;;;;;;;;;;4977501;28;20453;-78
2021/10/21 10:35:33;;;;;;;163.93;152.73;;;;;;;;;;4977961;28;20489;-78
2021/10/21 10:38:01;;;;;;;207.53;194.67;;;;;;;;;;4979875;28;20451;-80
2021/10/21 10:40:45;;;;;;;193.70;181.50;;;;;;;;;;4981251;28;20477;-80
2021/10/21 10:43:13;;;;;;;192.23;178.97;;;;;;;;;;4978293;28;20447;-79
2021/10/21 10:45:42;;;;;;;198.70;185.30;;;;;;;;;;4979470;28;20982;-78
2021/10/21 10:48:12;;;;;;;211.70;197.30;;;;;;;;;;4978486;28;20455;-70
2021/10/21 10:50:53;;;;;;;225.70;210.07;;;;;;;;;;4980702;28;20444;-69
2021/10/21 10:53:35;;;;;;;259.80;242.50;;;;;;;;;;4979153;28;20826;-71
2021/10/21 10:56:02;;;;;;;249.80;232.87;;;;;;;;;;4978944;28;20487;-69
2021/10/21 10:58:30;;;;;;;264.77;247.30;;;;;;;;;;4979203;28;20833;-69
2021/10/21 11:00:58;;;;;;;258.20;241.17;;;;;;;;;;4978931;28;20455;-69
2021/10/21 11:03:35;;;;;;;258.30;241.10;;;;;;;;;;4968051;28;20542;-70
2021/10/21 11:06:03;;;;;;;217.17;200.87;;;;;;;;;;4979324;28;20440;-70
2021/10/21 11:08:48;;;;;;;256.77;239.40;;;;;;;;;;4978899;28;20482;-78
2021/10/21 11:11:30;;;;;;;253.67;237.03;;;;;;;;;;4978220;28;20526;-73
2021/10/21 11:14:04;;;;;;;218.40;203.40;;;;;;;;;;4977572;28;20455;-71
2021/10/21 11:16:52;;;;;;;231.57;216.20;;;;;;;;;;4977955;28;20494;-79
2021/10/21 11:19:39;;;;;;;168.60;156.27;;;;;;;;;;5005514;23;20516;-70
2021/10/21 11:22:08;;;;;;;201.60;188.00;;;;;;;;;;5008339;28;21229;-70
2021/10/21 11:25:00;;;;;;;195.70;182.30;;;;;;;;;;5013939;28;20807;-70
2021/10/21 11:27:32;;;;;;;219.50;205.10;;;;;;;;;;5001721;28;20545;-68
2021/10/21 11:30:04;;;;;;;227.43;211.43;;;;;;;;;;5012919;28;20473;-67
2021/10/21 11:32:33;;;;;;;274.90;256.87;;;;;;;;;;5013408;28;21002;-67
2021/10/21 11:35:00;;;;;;;343.13;319.13;;;;;;;;;;5013187;28;20983;-68
2021/10/21 11:37:43;;;;;;;235.43;218.60;;;;;;;;;;5012919;28;20461;-68
2021/10/21 11:40:11;;;;;;;365.40;340.33;;;;;;;;;;4994180;28;20505;-67
2021/10/21 11:42:38;;;;;;;585.47;543.07;;;;;;;;;;5010808;28;20460;-67
2021/10/21 11:45:07;;;;;;;566.27;526.40;;;;;;;;;;5013150;28;20799;-66
2021/10/21 11:47:36;;;;;;;443.07;409.43;;;;;;;;;;5013018;28;20454;-66
2021/10/21 11:50:04;;;;;;;415.50;388.20;;;;;;;;;;5013122;28;20857;-66
2021/10/21 11:52:38;;;;;;;412.33;387.73;;;;;;;;;;5012413;28;20516;-67
2021/10/21 11:55:08;;;;;;;504.60;469.47;;;;;;;;;;5012724;28;21272;-66
2021/10/21 11:57:35;;;;;;;504.47;469.87;;;;;;;;;;5012679;28;20511;-67
2021/10/21 12:00:17;;;;;;;459.17;430.57;;;;;;;;;;5028044;28;20475;-66
2021/10/21 12:02:44;;;;;;;608.50;570.60;;;;;;;;;;5017096;28;20545;-66
2021/10/21 12:05:11;;;;;;;580.03;541.73;;;;;;;;;;5012289;28;20454;-66
2021/10/21 12:07:38;;;;;;;479.87;447.83;;;;;;;;;;5007138;28;21249;-66
2021/10/21 12:10:06;;;;;;;453.80;424.13;;;;;;;;;;5012228;28;20528;-66
2021/10/21 12:12:40;;;;;;;417.43;391.07;;;;;;;;;;5012660;28;20941;-67
2021/10/21 12:15:09;;;;;;;406.67;381.87;;;;;;;;;;5000339;28;20868;-66
2021/10/21 12:17:37;;;;;;;398.60;374.53;;;;;;;;;;5011233;28;20477;-67
2021/10/21 12:20:04;;;;;;;390.90;368.43;;;;;;;;;;5012146;28;20485;-67
2021/10/21 12:22:36;;;;;;;406.00;381.67;;;;;;;;;;5012568;28;20495;-64
2021/10/21 12:25:06;;;;;;;420.63;394.50;;;;;;;;;;5011841;28;20450;-65
2021/10/21 12:27:33;;;;;;;431.20;405.30;;;;;;;;;;5022298;28;20481;-64
2021/10/21 12:30:05;;;;;;;453.17;426.57;;;;;;;;;;5020373;28;20841;-66
2021/10/21 12:32:32;;;;;;;460.60;433.00;;;;;;;;;;5014096;28;20465;-66
2021/10/21 12:35:06;;;;;;;466.10;439.60;;;;;;;;;;5029200;28;20459;-64
2021/10/21 12:37:39;;;;;;;451.50;425.20;;;;;;;;;;5031654;28;20448;-64
2021/10/21 12:40:13;;;;;;;428.10;403.40;;;;;;;;;;5031521;28;20995;-64
2021/10/21 12:42:40;;;;;;;425.43;400.93;;;;;;;;;;5014225;28;20457;-64
2021/10/21 12:45:09;;;;;;;427.63;404.10;;;;;;;;;;5024559;28;20985;-64
2021/10/21 12:47:38;;;;;;;441.20;418.27;;;;;;;;;;4993125;28;20442;-67
2021/10/21 12:50:07;;;;;;;453.53;430.83;;;;;;;;;;5008793;28;20996;-65
2021/10/21 12:52:35;;;;;;;447.67;424.47;;;;;;;;;;5012965;28;20452;-63
2021/10/21 12:55:12;;;;;;;450.53;427.60;;;;;;;;;;5012291;28;20520;-64
2021/10/21 12:57:46;;;;;;;449.27;425.27;;;;;;;;;;5011996;28;20830;-65
2021/10/21 13:00:15;;;;;;;450.53;426.23;;;;;;;;;;5011955;28;20485;-68
2021/10/21 13:02:42;;;;;;;442.77;419.37;;;;;;;;;;5012538;28;20446;-65
2021/10/21 13:05:22;;;;;;;441.47;418.87;;;;;;;;;;5010744;28;20454;-67
2021/10/21 13:07:49;;;;;;;441.30;417.43;;;;;;;;;;5012029;28;20452;-65
2021/10/21 13:10:16;;;;;;;434.70;411.77;;;;;;;;;;5011503;28;20484;-64
2021/10/21 13:12:43;;;;;;;421.97;398.37;;;;;;;;;;5011774;28;20862;-64
2021/10/21 13:15:10;;;;;;;430.97;408.00;;;;;;;;;;5011607;28;20476;-65
2021/10/21 13:17:39;;;;;;;421.30;398.50;;;;;;;;;;5012472;28;20489;-66
2021/10/21 13:20:07;;;;;;;405.40;382.90;;;;;;;;;;5011613;28;20503;-64
2021/10/21 13:22:34;;;;;;;420.60;397.00;;;;;;;;;;5011999;28;20967;-65
2021/10/21 13:25:02;;;;;;;418.03;394.80;;;;;;;;;;5011727;28;20450;-64
2021/10/21 13:27:29;;;;;;;414.20;390.90;;;;;;;;;;5012470;28;20454;-67
2021/10/21 13:29:56;;;;;;;402.50;379.30;;;;;;;;;;5011550;28;20478;-65
2021/10/21 13:32:24;;;;;;;419.87;396.10;;;;;;;;;;5011642;28;20536;-68
2021/10/21 13:34:52;;;;;;;441.97;411.83;;;;;;;;;;5011075;28;20446;-64
2021/10/21 13:37:19;;;;;;;446.63;417.03;;;;;;;;;;5010296;28;20481;-65
2021/10/21 13:39:46;;;;;;;436.50;408.53;;;;;;;;;;5022981;28;20473;-65
2021/10/21 13:42:14;;;;;;;423.00;395.90;;;;;;;;;;5011558;28;20449;-67
2021/10/21 13:44:41;;;;;;;444.37;414.47;;;;;;;;;;5011100;28;21011;-65
2021/10/21 13:47:08;;;;;;;422.57;395.27;;;;;;;;;;5023340;28;20449;-65
2021/10/21 13:49:37;;;;;;;450.13;419.43;;;;;;;;;;5012541;28;20462;-65
2021/10/21 13:52:06;;;;;;;426.40;398.50;;;;;;;;;;5012859;28;20464;-65
2021/10/21 13:54:33;;;;;;;338.47;320.10;;;;;;;;;;5011617;28;20536;-65
2021/10/21 13:57:01;;;;;;;349.17;329.03;;;;;;;;;;5011983;28;20489;-66
2021/10/21 13:59:28;;;;;;;328.53;309.20;;;;;;;;;;5011865;28;20465;-65
2021/10/21 14:01:56;;;;;;;351.87;332.13;;;;;;;;;;5011069;28;20468;-66
2021/10/21 14:04:23;;;;;;;344.90;324.80;;;;;;;;;;5010875;28;20477;-64